createdAt,value
2019-04-10T00:00:35.272Z,2.00
2019-04-10T00:03:02.108Z,1.50
2019-04-10T00:05:28.532Z,1.20
2019-04-10T00:07:55.484Z,1.70
2019-04-10T00:10:21.805Z,1.70
2019-04-10T00:12:48.148Z,1.80
2019-04-10T00:15:16.108Z,1.70
2019-04-10T00:17:43.007Z,1.50
2019-04-10T00:20:09.920Z,1.80
2019-04-10T00:22:36.357Z,1.47
2019-04-10T00:25:04.327Z,1.80
2019-04-10T00:27:30.525Z,1.50
2019-04-10T00:29:57.073Z,1.37
2019-04-10T00:32:23.760Z,1.30
2019-04-10T00:34:50.046Z,1.50
2019-04-10T00:37:23.678Z,1.73
2019-04-10T00:39:44.593Z,2.17
2019-04-10T00:42:10.944Z,1.53
2019-04-10T00:44:37.528Z,1.50
2019-04-10T00:47:04.506Z,1.60
2019-04-10T00:49:31.459Z,1.50
2019-04-10T00:51:57.845Z,1.30
2019-04-10T00:54:24.077Z,1.60
2019-04-10T00:56:50.638Z,1.27
2019-04-10T00:59:17.788Z,1.50
2019-04-10T01:01:44.017Z,1.70
2019-04-10T01:04:10.558Z,1.43
2019-04-10T01:06:37.840Z,1.20
2019-04-10T01:09:05.106Z,1.33
2019-04-10T01:11:31.469Z,1.30
2019-04-10T01:13:57.701Z,1.50
2019-04-10T01:16:25.082Z,1.50
2019-04-10T01:18:51.388Z,1.80
2019-04-10T01:21:18.129Z,1.50
2019-04-10T01:23:44.954Z,1.50
2019-04-10T01:26:11.303Z,1.80
2019-04-10T01:28:38.357Z,1.37
2019-04-10T01:31:04.978Z,1.50
2019-04-10T01:33:32.458Z,1.60
2019-04-10T01:35:59.172Z,0.90
2019-04-10T01:38:25.697Z,1.37
2019-04-10T01:40:53.071Z,1.30
2019-04-10T01:43:20.034Z,1.23
2019-04-10T01:45:46.447Z,1.17
2019-04-10T01:48:12.676Z,1.50
2019-04-10T01:50:39.268Z,1.10
2019-04-10T01:53:05.836Z,1.50
2019-04-10T01:55:33.225Z,1.33
2019-04-10T01:58:03.100Z,1.30
2019-04-10T02:00:31.895Z,1.60
2019-04-10T02:02:58.258Z,1.20
2019-04-10T02:05:24.910Z,1.33
2019-04-10T02:08:01.225Z,1.67
2019-04-10T02:10:20.404Z,1.30
2019-04-10T02:12:47.241Z,1.30
2019-04-10T02:15:14.471Z,1.47
2019-04-10T02:17:41.960Z,1.60
2019-04-10T02:20:08.493Z,1.67
2019-04-10T02:22:34.937Z,1.57
2019-04-10T02:25:01.384Z,1.60
2019-04-10T02:27:27.969Z,1.43
2019-04-10T02:29:54.204Z,1.60
2019-04-10T02:32:21.066Z,1.60
2019-04-10T02:34:48.930Z,1.50
2019-04-10T02:37:17.016Z,1.60
2019-04-10T02:39:47.941Z,1.63
2019-04-10T02:42:12.058Z,1.90
2019-04-10T02:44:38.312Z,1.47
2019-04-10T02:47:06.281Z,1.67
2019-04-10T02:49:32.939Z,1.47
2019-04-10T02:51:59.162Z,1.80
2019-04-10T02:54:26.933Z,1.83
2019-04-10T02:56:54.889Z,1.50
2019-04-10T02:59:23.194Z,1.53
2019-04-10T03:01:49.795Z,1.20
2019-04-10T03:04:16.624Z,1.57
2019-04-10T03:06:45.236Z,1.37
2019-04-10T03:09:28.935Z,1.77
2019-04-10T03:11:41.799Z,1.87
2019-04-10T03:14:08.342Z,1.60
2019-04-10T03:16:35.480Z,1.60
2019-04-10T03:19:01.954Z,1.37
2019-04-10T03:21:29.161Z,1.60
2019-04-10T03:23:55.979Z,1.50
2019-04-10T03:26:23.582Z,1.70
2019-04-10T03:28:49.929Z,1.20
2019-04-10T03:31:16.377Z,1.57
2019-04-10T03:33:58.433Z,1.70
2019-04-10T03:36:27.379Z,1.70
2019-04-10T03:39:00.098Z,1.63
2019-04-10T03:41:22.159Z,1.30
2019-04-10T03:43:48.474Z,1.67
2019-04-10T03:46:14.841Z,1.83
2019-04-10T03:48:41.266Z,1.80
2019-04-10T03:51:08.169Z,1.70
2019-04-10T03:53:34.547Z,2.03
2019-04-10T03:56:01.242Z,1.53
2019-04-10T03:58:27.488Z,1.60
2019-04-10T04:00:54.268Z,1.40
2019-04-10T04:03:20.705Z,1.50
2019-04-10T04:05:46.931Z,1.10
2019-04-10T04:08:13.184Z,1.67
2019-04-10T04:10:40.458Z,1.60
2019-04-10T04:13:07.526Z,1.03
2019-04-10T04:15:33.872Z,1.40
2019-04-10T04:18:00.516Z,1.40
2019-04-10T04:20:26.848Z,1.20
2019-04-10T04:22:53.092Z,1.60
2019-04-10T04:25:19.525Z,1.30
2019-04-10T04:27:46.335Z,1.70
2019-04-10T04:30:14.668Z,1.40
2019-04-10T04:32:42.091Z,1.30
2019-04-10T04:35:09.082Z,1.40
2019-04-10T04:37:35.773Z,1.43
2019-04-10T04:40:03.142Z,1.20
2019-04-10T04:42:30.623Z,1.50
2019-04-10T04:44:57.005Z,1.50
2019-04-10T04:47:24.430Z,1.80
2019-04-10T04:49:50.871Z,1.20
2019-04-10T04:52:18.240Z,1.10
2019-04-10T04:54:45.647Z,1.43
2019-04-10T04:57:12.766Z,1.80
2019-04-10T04:59:39.129Z,1.23
2019-04-10T05:02:05.870Z,1.10
2019-04-10T05:04:32.669Z,1.33
2019-04-10T05:06:59.954Z,1.43
2019-04-10T05:09:33.767Z,1.30
2019-04-10T05:11:55.492Z,1.50
2019-04-10T05:14:21.859Z,1.30
2019-04-10T05:16:48.367Z,1.20
2019-04-10T05:19:14.801Z,1.50
2019-04-10T05:21:41.480Z,1.50
2019-04-10T05:24:07.981Z,1.70
2019-04-10T05:26:34.420Z,1.60
2019-04-10T05:29:00.768Z,1.47
2019-04-10T05:31:27.736Z,1.40
2019-04-10T05:33:54.064Z,1.60
2019-04-10T05:36:21.489Z,1.30
2019-04-10T05:38:48.270Z,1.40
2019-04-10T05:41:15.401Z,1.23
2019-04-10T05:43:42.571Z,1.30
2019-04-10T05:46:09.161Z,1.27
2019-04-10T05:48:35.657Z,1.80
2019-04-10T05:51:04.840Z,1.70
2019-04-10T05:53:30.346Z,1.50
2019-04-10T05:55:57.909Z,1.60
2019-04-10T05:58:24.221Z,1.23
2019-04-10T06:00:51.473Z,1.50
2019-04-10T06:03:18.615Z,1.60
2019-04-10T06:05:44.844Z,1.50
2019-04-10T06:08:11.924Z,1.40
2019-04-10T06:10:39.424Z,1.40
2019-04-10T06:13:06.766Z,1.30
2019-04-10T06:15:33.345Z,1.10
2019-04-10T06:17:59.707Z,1.77
2019-04-10T06:20:26.103Z,1.53
2019-04-10T06:22:52.784Z,1.70
2019-04-10T06:25:21.425Z,1.83
2019-04-10T06:27:48.340Z,1.87
2019-04-10T06:30:15.473Z,1.10
2019-04-10T06:32:43.107Z,1.63
2019-04-10T06:35:09.758Z,1.10
2019-04-10T06:37:36.325Z,1.53
2019-04-10T06:40:13.046Z,1.60
2019-04-10T06:42:44.381Z,1.23
2019-04-10T06:45:00.676Z,1.67
2019-04-10T06:47:26.921Z,1.20
2019-04-10T06:49:53.264Z,1.10
2019-04-10T06:52:20.671Z,1.30
2019-04-10T06:54:47.059Z,1.00
2019-04-10T06:57:14.556Z,1.30
2019-04-10T06:59:41.989Z,1.53
2019-04-10T07:02:19.102Z,1.03
2019-04-10T07:04:47.794Z,1.03
2019-04-10T07:07:10.716Z,1.30
2019-04-10T07:09:33.868Z,1.40
2019-04-10T07:12:01.756Z,1.27
2019-04-10T07:14:28.817Z,1.77
2019-04-10T07:16:55.191Z,1.20
2019-04-10T07:19:21.664Z,1.30
2019-04-10T07:21:48.948Z,1.30
2019-04-10T07:24:16.603Z,1.23
2019-04-10T07:26:45.940Z,1.63
2019-04-10T07:29:16.442Z,1.20
2019-04-10T07:31:39.802Z,1.17
2019-04-10T07:34:06.748Z,1.37
2019-04-10T07:36:33.119Z,1.73
2019-04-10T07:38:59.553Z,1.50
2019-04-10T07:41:26.457Z,1.20
2019-04-10T07:43:55.442Z,1.73
2019-04-10T07:46:21.854Z,1.40
2019-04-10T07:48:48.141Z,1.57
2019-04-10T07:51:14.597Z,1.00
2019-04-10T07:53:41.456Z,1.30
2019-04-10T07:56:13.580Z,1.40
2019-04-10T07:58:36.115Z,1.60
2019-04-10T08:01:03.840Z,1.07
2019-04-10T08:03:31.157Z,0.97
2019-04-10T08:05:58.210Z,0.90
2019-04-10T08:08:25.619Z,1.23
2019-04-10T08:10:53.001Z,1.20
2019-04-10T08:13:20.351Z,0.90
2019-04-10T08:15:46.832Z,1.20
2019-04-10T08:18:13.093Z,1.17
2019-04-10T08:20:40.288Z,1.20
2019-04-10T08:23:07.931Z,1.50
2019-04-10T08:25:35.359Z,1.73
2019-04-10T08:28:02.695Z,0.90
2019-04-10T08:30:30.025Z,1.63
2019-04-10T08:33:00.999Z,1.20
2019-04-10T08:35:25.076Z,1.43
2019-04-10T08:37:51.424Z,1.10
2019-04-10T08:40:18.990Z,1.40
2019-04-10T08:42:47.324Z,1.47
2019-04-10T08:45:13.812Z,1.27
2019-04-10T08:47:40.193Z,1.20
2019-04-10T08:50:07.798Z,1.30
2019-04-10T08:52:34.721Z,1.57
2019-04-10T08:55:01.855Z,1.30
2019-04-10T08:57:28.344Z,1.03
2019-04-10T08:59:54.586Z,1.30
2019-04-10T09:02:21.923Z,1.10
2019-04-10T09:04:49.016Z,1.20
2019-04-10T09:07:15.848Z,1.00
2019-04-10T09:09:42.231Z,1.17
2019-04-10T09:12:09.376Z,1.40
2019-04-10T09:14:35.712Z,1.40
2019-04-10T09:17:02.846Z,1.40
2019-04-10T09:19:29.972Z,1.37
2019-04-10T09:21:57.435Z,1.13
2019-04-10T09:24:23.875Z,1.30
2019-04-10T09:26:50.819Z,1.47
2019-04-10T09:29:18.131Z,1.30
2019-04-10T09:31:44.401Z,1.27
2019-04-10T09:34:11.768Z,1.47
2019-04-10T09:36:38.190Z,1.30
2019-04-10T09:39:05.633Z,1.27
2019-04-10T09:41:32.165Z,1.40
2019-04-10T09:43:58.507Z,1.40
2019-04-10T09:46:24.841Z,1.40
2019-04-10T09:48:52.015Z,1.43
2019-04-10T09:51:19.628Z,1.30
2019-04-10T09:53:46.045Z,1.27
2019-04-10T09:56:13.576Z,1.30
2019-04-10T09:58:40.555Z,1.30
2019-04-10T10:01:13.313Z,1.00
2019-04-10T10:03:39.939Z,1.40
2019-04-10T10:06:07.021Z,1.10
2019-04-10T10:08:33.830Z,1.20
2019-04-10T10:11:00.453Z,1.30
2019-04-10T10:13:27.742Z,1.40
2019-04-10T10:15:54.590Z,1.17
2019-04-10T10:18:21.403Z,1.40
2019-04-10T10:20:48.174Z,1.40
2019-04-10T10:23:14.400Z,1.23
2019-04-10T10:25:41.515Z,1.30
2019-04-10T10:28:08.869Z,1.20
2019-04-10T10:30:35.664Z,1.40
2019-04-10T10:33:02.105Z,1.00
2019-04-10T10:35:29.355Z,1.40
2019-04-10T10:37:56.784Z,1.40
2019-04-10T10:40:23.478Z,1.73
2019-04-10T10:42:50.096Z,1.50
2019-04-10T10:45:16.625Z,0.80
2019-04-10T10:47:43.051Z,1.30
2019-04-10T10:50:10.100Z,1.40
2019-04-10T10:52:36.449Z,1.50
2019-04-10T10:55:04.001Z,1.47
2019-04-10T10:57:31.148Z,1.30
2019-04-10T10:59:57.718Z,1.60
2019-04-10T11:02:24.109Z,1.47
2019-04-10T11:04:50.353Z,1.30
2019-04-10T11:07:16.992Z,1.30
2019-04-10T11:09:44.468Z,1.30
2019-04-10T11:12:12.182Z,1.20
2019-04-10T11:14:39.598Z,1.50
2019-04-10T11:17:06.264Z,1.70
2019-04-10T11:19:32.737Z,1.20
2019-04-10T11:21:59.072Z,1.80
2019-04-10T11:24:25.527Z,1.20
2019-04-10T11:26:51.983Z,1.47
2019-04-10T11:29:19.396Z,1.33
2019-04-10T11:31:46.994Z,1.47
2019-04-10T11:34:14.180Z,1.90
2019-04-10T11:36:42.387Z,1.20
2019-04-10T11:39:17.123Z,1.43
2019-04-10T11:41:37.380Z,1.43
2019-04-10T11:44:04.725Z,1.20
2019-04-10T11:46:32.082Z,1.40
2019-04-10T11:49:00.665Z,1.53
2019-04-10T11:51:30.317Z,1.70
2019-04-10T11:53:56.950Z,1.63
2019-04-10T11:56:23.702Z,1.30
2019-04-10T11:58:55.584Z,1.23
2019-04-10T12:01:21.602Z,1.50
2019-04-10T12:03:51.473Z,1.23
2019-04-10T12:06:17.429Z,1.20
2019-04-10T12:11:15.490Z,1.73
2019-04-10T12:13:40.771Z,1.70
2019-04-10T12:16:07.186Z,1.53
2019-04-10T12:18:33.601Z,1.47
2019-04-10T12:21:00.160Z,1.30
2019-04-10T12:23:27.223Z,1.60
2019-04-10T12:25:53.695Z,1.80
2019-04-10T12:28:20.143Z,1.53
2019-04-10T12:30:46.438Z,1.67
2019-04-10T12:33:13.605Z,1.63
2019-04-10T12:35:40.353Z,1.33
2019-04-10T12:38:10.176Z,1.63
2019-04-10T12:40:36.593Z,1.67
2019-04-10T12:43:03.157Z,1.87
2019-04-10T12:45:30.489Z,1.17
2019-04-10T12:47:56.742Z,1.40
2019-04-10T12:50:23.277Z,1.30
2019-04-10T12:52:49.617Z,1.33
2019-04-10T12:55:16.480Z,1.60
2019-04-10T12:57:43.492Z,1.57
2019-04-10T13:00:11.814Z,1.43
2019-04-10T13:02:38.635Z,1.50
2019-04-10T13:05:05.533Z,1.60
2019-04-10T13:07:31.873Z,1.60
2019-04-10T13:09:58.324Z,1.93
2019-04-10T13:12:25.059Z,1.10
2019-04-10T13:14:51.313Z,2.43
2019-04-10T13:17:19.926Z,2.00
2019-04-10T13:19:45.613Z,1.43
2019-04-10T13:22:12.718Z,1.43
2019-04-10T13:24:39.181Z,1.80
2019-04-10T13:27:06.202Z,1.80
2019-04-10T13:29:33.189Z,1.40
2019-04-10T13:31:59.589Z,1.50
2019-04-10T13:34:26.928Z,1.60
2019-04-10T13:36:53.532Z,1.77
2019-04-10T13:39:20.431Z,1.40
2019-04-10T13:41:46.961Z,1.27
2019-04-10T13:44:14.122Z,1.53
2019-04-10T13:46:40.712Z,1.30
2019-04-10T13:49:07.117Z,1.70
2019-04-10T13:51:33.735Z,1.50
2019-04-10T13:54:00.187Z,1.40
2019-04-10T13:56:26.533Z,1.60
2019-04-10T13:58:53.077Z,1.80
2019-04-10T14:01:27.254Z,1.27
2019-04-10T14:03:54.447Z,2.00
2019-04-10T14:06:21.223Z,1.47
2019-04-10T14:09:03.165Z,1.70
2019-04-10T14:11:15.790Z,1.60
2019-04-10T14:13:42.234Z,1.43
2019-04-10T14:16:08.634Z,1.50
2019-04-10T14:18:35.016Z,1.57
2019-04-10T14:21:04.951Z,1.67
2019-04-10T14:23:29.834Z,1.40
2019-04-10T14:26:07.231Z,2.00
2019-04-10T14:28:35.443Z,1.90
2019-04-10T14:31:07.616Z,1.60
2019-04-10T14:33:34.195Z,1.40
2019-04-10T14:36:00.426Z,1.53
2019-04-10T14:38:27.382Z,1.80
2019-04-10T14:40:53.877Z,1.43
2019-04-10T14:43:20.900Z,1.80
2019-04-10T14:45:48.013Z,1.47
2019-04-10T14:48:16.034Z,1.90
2019-04-10T14:50:42.505Z,1.73
2019-04-10T14:53:09.637Z,1.60
2019-04-10T14:55:36.024Z,2.00
2019-04-10T14:58:03.357Z,1.87
2019-04-10T15:00:32.777Z,1.80
2019-04-10T15:03:00.146Z,1.97
2019-04-10T15:05:26.617Z,1.70
2019-04-10T15:07:53.309Z,1.63
2019-04-10T15:10:19.803Z,2.30
2019-04-10T15:12:46.324Z,1.43
2019-04-10T15:15:12.665Z,1.70
2019-04-10T15:17:38.917Z,1.70
2019-04-10T15:20:05.453Z,1.43
2019-04-10T15:22:31.893Z,2.07
2019-04-10T15:24:59.276Z,1.80
2019-04-10T15:27:25.508Z,1.80
2019-04-10T15:29:52.600Z,1.70
2019-04-10T15:32:20.136Z,1.60
2019-04-10T15:34:46.573Z,2.07
2019-04-10T15:37:13.013Z,1.80
2019-04-10T15:39:41.457Z,1.57
2019-04-10T15:42:07.921Z,2.07
2019-04-10T15:44:34.436Z,1.90
2019-04-10T15:47:10.572Z,1.80
2019-04-10T15:49:30.700Z,1.83
2019-04-10T15:51:57.624Z,1.90
2019-04-10T15:54:23.939Z,1.87
2019-04-10T15:56:50.384Z,2.23
2019-04-10T15:59:16.728Z,2.10
2019-04-10T16:01:43.501Z,1.80
2019-04-10T16:04:09.889Z,1.77
2019-04-10T16:06:36.307Z,2.13
2019-04-10T16:09:04.975Z,2.03
2019-04-10T16:11:50.165Z,1.63
2019-04-10T16:14:22.561Z,2.30
2019-04-10T16:17:03.055Z,2.10
2019-04-10T16:19:34.533Z,1.77
2019-04-10T16:22:01.136Z,2.20
2019-04-10T16:24:27.461Z,1.97
2019-04-10T16:26:54.226Z,2.53
2019-04-10T16:29:20.664Z,1.60
2019-04-10T16:31:48.229Z,2.53
2019-04-10T16:34:15.636Z,2.03
2019-04-10T16:36:42.044Z,3.50
2019-04-10T16:39:11.309Z,2.10
2019-04-10T16:41:37.829Z,1.93
2019-04-10T16:44:04.624Z,2.10
2019-04-10T16:46:32.067Z,2.20
2019-04-10T16:49:00.032Z,2.30
2019-04-10T16:51:28.042Z,2.20
2019-04-10T16:53:54.332Z,2.10
2019-04-10T16:56:21.213Z,2.47
2019-04-10T16:58:47.953Z,1.80
2019-04-10T17:01:14.698Z,2.47
2019-04-10T17:03:42.038Z,2.20
2019-04-10T17:06:08.320Z,2.93
2019-04-10T17:08:34.692Z,2.30
2019-04-10T17:11:01.133Z,2.97
2019-04-10T17:13:28.673Z,2.23
2019-04-10T17:15:55.578Z,2.03
2019-04-10T17:18:23.318Z,2.00
2019-04-10T17:20:50.962Z,1.90
2019-04-10T17:23:18.487Z,2.10
2019-04-10T17:25:45.004Z,2.60
2019-04-10T17:28:12.319Z,1.80
2019-04-10T17:30:39.980Z,2.53
2019-04-10T17:33:06.895Z,2.40
2019-04-10T17:35:33.727Z,2.73
2019-04-10T17:38:00.286Z,2.87
2019-04-10T17:40:33.874Z,1.90
2019-04-10T17:42:54.920Z,2.17
2019-04-10T17:45:22.831Z,2.13
2019-04-10T17:47:49.441Z,2.03
2019-04-10T17:50:16.363Z,2.37
2019-04-10T17:52:42.996Z,2.23
2019-04-10T17:55:09.923Z,1.77
2019-04-10T17:57:40.424Z,2.50
2019-04-10T18:00:16.737Z,1.60
2019-04-10T18:02:43.193Z,1.93
2019-04-10T18:05:10.405Z,2.20
2019-04-10T18:07:36.893Z,1.80
2019-04-10T18:10:04.422Z,1.77
2019-04-10T18:12:30.792Z,2.00
2019-04-10T18:14:57.617Z,2.23
2019-04-10T18:17:24.950Z,1.80
2019-04-10T18:19:52.385Z,1.47
2019-04-10T18:22:18.813Z,1.47
2019-04-10T18:24:45.435Z,1.80
2019-04-10T18:27:12.231Z,2.00
2019-04-10T18:29:39.335Z,2.07
2019-04-10T18:32:05.802Z,2.00
2019-04-10T18:34:33.248Z,2.60
2019-04-10T18:37:02.361Z,2.40
2019-04-10T18:39:27.993Z,2.20
2019-04-10T18:41:54.346Z,2.43
2019-04-10T18:44:20.789Z,3.73
2019-04-10T18:46:47.158Z,1.60
2019-04-10T18:49:13.631Z,2.20
2019-04-10T18:51:40.394Z,2.50
2019-04-10T18:54:07.998Z,1.67
2019-04-10T18:56:35.451Z,2.57
2019-04-10T18:59:07.899Z,2.47
2019-04-10T19:01:39.134Z,2.40
2019-04-10T19:04:07.791Z,2.67
2019-04-10T19:06:51.224Z,2.70
2019-04-10T19:09:24.396Z,2.90
2019-04-10T19:11:46.597Z,2.20
2019-04-10T19:14:14.392Z,2.93
2019-04-10T19:16:41.581Z,2.50
2019-04-10T19:19:08.152Z,1.53
2019-04-10T19:21:35.636Z,2.20
2019-04-10T19:24:02.077Z,2.33
2019-04-10T19:26:29.449Z,2.70
2019-04-10T19:28:57.134Z,2.93
2019-04-10T19:31:25.603Z,2.23
2019-04-10T19:33:51.919Z,2.63
2019-04-10T19:36:19.407Z,1.90
2019-04-10T19:38:45.839Z,1.97
2019-04-10T19:41:23.439Z,1.97
2019-04-10T19:43:40.526Z,2.60
2019-04-10T19:46:08.375Z,2.80
2019-04-10T19:48:35.220Z,1.80
2019-04-10T19:51:01.594Z,2.30
2019-04-10T19:53:28.955Z,2.17
2019-04-10T19:55:56.005Z,2.17
2019-04-10T19:58:22.437Z,2.30
2019-04-10T20:00:49.096Z,2.13
2019-04-10T20:03:15.530Z,2.10
2019-04-10T20:05:41.928Z,2.10
2019-04-10T20:08:09.307Z,3.00
2019-04-10T20:10:37.354Z,2.17
2019-04-10T20:13:04.754Z,2.53
2019-04-10T20:15:31.216Z,1.83
2019-04-10T20:17:57.562Z,2.63
2019-04-10T20:20:24.096Z,2.33
2019-04-10T20:22:50.443Z,2.10
2019-04-10T20:25:16.771Z,2.13
2019-04-10T20:27:43.133Z,3.17
2019-04-10T20:30:09.940Z,2.07
2019-04-10T20:32:36.862Z,2.03
2019-04-10T20:35:04.726Z,3.13
2019-04-10T20:37:31.149Z,2.63
2019-04-10T20:39:57.925Z,2.90
2019-04-10T20:42:25.216Z,2.60
2019-04-10T20:44:52.013Z,2.67
2019-04-10T20:47:19.191Z,3.00
2019-04-10T20:49:46.676Z,2.97
2019-04-10T20:52:14.604Z,3.13
2019-04-10T20:54:41.237Z,2.57
2019-04-10T20:57:07.682Z,3.07
2019-04-10T20:59:34.887Z,2.60
2019-04-10T21:02:02.038Z,2.37
2019-04-10T21:04:29.620Z,2.40
2019-04-10T21:06:56.576Z,2.10
2019-04-10T21:09:23.634Z,2.70
2019-04-10T21:11:59.806Z,2.43
2019-04-10T21:14:19.094Z,1.90
2019-04-10T21:16:45.409Z,2.30
2019-04-10T21:19:12.813Z,2.97
2019-04-10T21:21:39.187Z,2.10
2019-04-10T21:24:05.525Z,2.60
2019-04-10T21:26:32.466Z,3.10
2019-04-10T21:28:58.713Z,2.30
2019-04-10T21:31:38.975Z,2.43
2019-04-10T21:34:16.061Z,3.20
2019-04-10T21:36:43.455Z,2.60
2019-04-10T21:39:11.062Z,2.60
2019-04-10T21:41:39.020Z,2.67
2019-04-10T21:44:06.320Z,2.50
2019-04-10T21:46:32.855Z,1.80
2019-04-10T21:48:59.569Z,1.97
2019-04-10T21:51:25.842Z,2.00
2019-04-10T21:53:52.189Z,2.43
2019-04-10T21:56:18.430Z,3.03
2019-04-10T21:58:44.904Z,2.70
2019-04-10T22:01:11.642Z,2.00
2019-04-10T22:03:38.077Z,3.03
2019-04-10T22:06:06.516Z,2.20
2019-04-10T22:08:46.397Z,2.67
2019-04-10T22:11:12.903Z,3.17
2019-04-10T22:13:40.083Z,2.33
2019-04-10T22:16:09.326Z,1.90
2019-04-10T22:18:35.738Z,1.80
2019-04-10T22:21:02.368Z,2.40
2019-04-10T22:23:28.742Z,2.80
2019-04-10T22:25:55.039Z,2.63
2019-04-10T22:28:21.377Z,2.43
2019-04-10T22:30:48.437Z,2.00
2019-04-10T22:33:16.009Z,1.97
2019-04-10T22:35:42.518Z,2.40
2019-04-10T22:38:09.045Z,2.10
2019-04-10T22:40:35.771Z,2.70
2019-04-10T22:43:03.281Z,2.70
2019-04-10T22:45:30.974Z,2.40
2019-04-10T22:47:58.439Z,3.07
2019-04-10T22:50:27.318Z,2.23
2019-04-10T22:52:53.622Z,2.40
2019-04-10T22:55:21.807Z,2.57
2019-04-10T22:57:48.489Z,2.33
2019-04-10T23:00:18.088Z,2.60
2019-04-10T23:02:44.413Z,2.37
2019-04-10T23:05:11.969Z,2.20
2019-04-10T23:07:38.444Z,2.40
2019-04-10T23:10:11.252Z,2.40
2019-04-10T23:12:44.082Z,1.70
2019-04-10T23:15:07.137Z,2.33
2019-04-10T23:17:33.562Z,2.07
2019-04-10T23:20:00.728Z,2.47
2019-04-10T23:22:27.419Z,1.70
2019-04-10T23:24:54.104Z,2.40
2019-04-10T23:27:20.297Z,2.47
2019-04-10T23:29:46.615Z,2.47
2019-04-10T23:32:13.268Z,2.33
2019-04-10T23:34:39.604Z,2.23
2019-04-10T23:37:06.794Z,2.33
2019-04-10T23:39:33.059Z,2.40
2019-04-10T23:41:59.293Z,1.67
2019-04-10T23:44:25.654Z,2.67
2019-04-10T23:46:52.317Z,2.40
2019-04-10T23:49:19.539Z,2.27
2019-04-10T23:51:45.788Z,2.17
2019-04-10T23:54:13.168Z,2.20
2019-04-10T23:56:39.900Z,1.60
2019-04-10T23:59:06.647Z,2.60
